Flight Track Log - Related Links

Times and Time Zones

All times are in EDT time to prevent confusion due to time zone crossing. See the SWA3943 flight status page for this flight to view local times or setup timezone preferences in your user account.

Time Position Orientation Groundspeed Altitude Reporting Facility
EDT Latitude Longitude Course Direction KTS MPH feet Rate Location/Type
Thu 12:11:38 AM 39.1833 -76.7333 270° West 183 211 2,400  Level Potomac TRACON
Thu 12:12:38 AM 39.1833 -76.8000 270° West 214 246 5,600 3,250 Climbing Potomac TRACON
Thu 12:13:38 AM 39.2167 -76.8833 297° West 259 298 8,900 3,295 Climbing Potomac TRACON
Thu 12:15:31 AM 39.2942 -77.0531 301° West 282 325 15,100 3,295 Climbing Washington Center
Thu 12:16:31 AM 39.3492 -77.1561 305° West 322 371 18,400 2,950 Climbing Washington Center
Thu 12:17:31 AM 39.4081 -77.2703 304° West 359 413 21,000 1,500 Climbing Washington Center
Thu 12:18:31 AM 39.4650 -77.3819 303° West 373 429 21,400 1,550 Climbing Washington Center
Thu 12:19:31 AM 39.5258 -77.4964 305° West 378 435 24,100 1,978 Climbing Washington Center
Thu 12:21:33 AM 39.6542 -77.7383 305° West 402 463 27,400 1,800 Climbing Cleveland Center
Thu 12:22:41 AM 39.7333 -77.8983 303° West 434 499 29,800 2,140 Climbing New York Center
Thu 12:23:42 AM 39.8006 -78.0294 304° West 444 511 32,000 1,388 Climbing New York Center
Thu 12:24:42 AM 39.8975 -78.1153 326° Northwest 426 490 32,600 1,128 Climbing New York Center
Thu 12:25:39 AM 40.0164 -78.0464 24° Northeast 381 438 34,200 1,650 Climbing New York Center
Thu 12:26:42 AM 40.1039 -77.9117 50° Northeast 389 448 35,900 1,750 Climbing New York Center
Thu 12:27:39 AM 40.1906 -77.7847 48° Northeast 416 479 37,700 1,815 Climbing New York Center
Thu 12:28:41 AM 40.2753 -77.6597 48° Northeast 441 507 39,500 1,475 Climbing New York Center
Thu 12:29:41 AM 40.3594 -77.5347 49° Northeast 447 514 40,700 763 Climbing New York Center
Thu 12:30:39 AM 40.4436 -77.4119 48° Northeast 447 514 41,000 149 Climbing New York Center
Thu 12:31:42 AM 40.5183 -77.3044 48° Northeast 453 521 41,000  Level New York Center
Thu 12:32:40 AM 40.6025 -77.1783 49° Northeast 453 521 41,000  Level New York Center
Thu 12:33:40 AM 40.6842 -77.0519 50° Northeast 453 521 41,000  Level New York Center
Thu 12:34:42 AM 40.7722 -76.9256 47° Northeast 458 527 41,000  Level New York Center
Thu 12:35:40 AM 40.8558 -76.7989 49° Northeast 458 527 41,000  Level New York Center
Thu 12:36:40 AM 40.9394 -76.6689 50° Northeast 458 527 41,000  Level New York Center
Thu 12:37:42 AM 41.0247 -76.5442 48° Northeast 458 527 41,000  Level New York Center
Thu 12:39:36 AM 41.1908 -76.2828 50° Northeast 441 507 41,000  Level Boston Center
Thu 12:40:35 AM 41.2764 -76.1525 49° Northeast 448 516 41,000  Level Boston Center
Thu 12:41:34 AM 41.3619 -76.0192 49° Northeast 461 531 41,000  Level Boston Center
Thu 12:42:34 AM 41.4450 -75.8936 49° Northeast 461 531 41,000  Level Boston Center
Thu 12:43:34 AM 41.5217 -75.7758 49° Northeast 466 536 41,000  Level Boston Center
Thu 12:44:34 AM 41.6047 -75.6469 49° Northeast 466 536 41,000  Level Boston Center
Thu 12:45:36 AM 41.6894 -75.5150 49° Northeast 466 536 41,000  Level Boston Center
Thu 12:46:36 AM 41.7700 -75.3881 50° Northeast 466 536 41,000  Level Boston Center
Thu 12:47:35 AM 41.8525 -75.2581 50° Northeast 466 536 41,000  Level Boston Center
Thu 12:48:34 AM 41.9372 -75.1250 49° Northeast 466 536 41,000 -202 Level Boston Center
Thu 12:49:34 AM 42.0172 -74.9942 51° Northeast 466 536 40,600 -1,200 Descending Boston Center
Thu 12:50:34 AM 42.0769 -74.8400 62° Northeast 458 527 38,600 -1,983 Descending Boston Center
Thu 12:51:35 AM 42.1242 -74.6739 69° East 457 526 36,600 -1,967 Descending Boston Center
Thu 12:52:36 AM 42.1753 -74.4964 69° East 484 557 34,600 -2,016 Descending Boston Center
Thu 12:53:37 AM 42.2350 -74.3078 67° East 497 572 32,500 -2,136 Descending Boston Center
Thu 12:54:34 AM 42.2836 -74.1322 69° East 502 578 30,400 -1,795 Descending Boston Center
Thu 12:55:34 AM 42.3239 -73.9425 74° East 509 586 29,000 -700 Descending Boston Center
Thu 12:56:34 AM 42.3678 -73.7581 72° East 509 586 29,000  Level Boston Center
Thu 12:57:35 AM 42.4094 -73.5706 73° East 515 593 29,000  Level Boston Center
Thu 12:58:36 AM 42.4486 -73.3856 74° East 515 593 29,000 -1,140 Level Boston Center
Thu 12:59:36 AM 42.4875 -73.2058 74° East 511 588 26,700 -2,593 Descending Boston Center
Thu 01:00:34 AM 42.5261 -73.0233 74° East 506 582 23,900 -2,746 Descending Boston Center
Thu 01:01:34 AM 42.5644 -72.8517 73° East 489 563 21,300 -2,361 Descending Boston Center
Thu 01:02:36 AM 42.5981 -72.6828 75° East 471 542 19,100 -2,150 Descending Boston Center
Thu 01:03:34 AM 42.6275 -72.5472 74° East 439 505 17,000 -2,100 Descending Boston Center
Thu 01:04:36 AM 42.6608 -72.3950 73° East 427 491 14,900 -2,100 Descending Boston Center
Thu 01:05:34 AM 42.6919 -72.2339 75° East 411 473 12,800 -2,168 Descending Boston Center
Thu 01:06:35 AM 42.7208 -72.0953 74° East 392 451 10,600 -1,587 Descending Boston Center
Thu 01:07:35 AM 42.7475 -71.9622 75° East 370 426 9,600 -1,200 Descending Boston Center
Thu 01:08:35 AM 42.7678 -71.8406 77° East 336 387 8,200 -1,388 Descending Boston Center
Thu 01:09:36 AM 42.7650 -71.7189 92° East 324 373 6,800 -1,350 Descending Boston Center
Thu 01:10:35 AM 42.7558 -71.6031 96° East 314 361 5,500 -915 Descending Boston Center
Thu 01:11:34 AM 42.7300 -71.5158 112° Southeast 286 329 5,000 -545 Descending Boston Center
Thu 01:12:36 AM 42.7169 -71.4283 101° East 228 262 4,400 -750 Descending Boston Center
Thu 01:13:34 AM 42.7392 -71.3686 63° Northeast 194 223 3,500 -1,017 Descending Boston Center
Thu 01:14:34 AM 42.7933 -71.3536 11° North 160 184 2,400 -750 Descending Boston Center
Thu 01:15:34 AM 42.8311 -71.3756 337° Northwest 160 184 2,000 -500 Descending Boston Center
Thu 01:16:34 AM 42.8708 -71.3975 338° Northwest 152 175 1,400 -650 Descending Boston Center
Thu 01:17:34 AM 42.9003 -71.4169 334° Northwest 135 155 700 -492 Descending Boston Center
Thu 01:18:36 AM 42.9336 -71.4361 337° Northwest 135 155 400 14,150 Descending Boston Center
Thu 01:19:34 AM 42.9650 -71.4556 336° Northwest 135 155 29,000 14,542 Climbing Boston Center
Thu 01:20:34 AM 42.9967 -71.4778 333° Northwest 135 155 29,000  Level Boston Center

Login

Don't have an account? Register now (free) for customized features, flight alerts, and more!